Time;durP1;ratioP1;P1;durP2;ratioP2;P2;SDS_P1;SDS_P2;PMS_P1;PMS_P2;Temp;Humidity;BMP_temperature;BMP_pressure;BME280_temperature;BME280_humidity;BME280_pressure;Samples;Min_cycle;Max_cycle;Signal;HPM_P1;HPM_P2
2022/12/03 00:00:51;;;;;;;;;;;3.20;99.90;;;;;;4957037;28;19960;-63
2022/12/03 00:03:17;;;;;;;;;;;3.20;99.90;;;;;;4956753;28;20385;-63
2022/12/03 00:05:42;;;;;;;;;;;3.30;99.90;;;;;;4967235;28;19989;-63
2022/12/03 00:08:08;;;;;;;;;;;3.20;99.90;;;;;;4965957;28;19928;-63
2022/12/03 00:10:33;;;;;;;;;;;3.40;99.90;;;;;;4964426;28;19960;-63
2022/12/03 00:12:59;;;;;;;;;;;3.40;99.90;;;;;;4959618;28;20559;-63
2022/12/03 00:15:24;;;;;;;;;;;3.50;99.90;;;;;;4956242;28;19917;-63
2022/12/03 00:17:50;;;;;;;;;;;3.40;99.90;;;;;;4955072;28;20607;-63
2022/12/03 00:20:17;;;;;;;;;;;3.10;99.90;;;;;;4955776;28;19914;-63
2022/12/03 00:22:42;;;;;;;;;;;3.10;99.90;;;;;;4955137;28;19953;-63
2022/12/03 00:25:08;;;;;;;;;;;3.20;99.90;;;;;;4953662;28;19983;-63
2022/12/03 00:27:33;;;;;;;;;;;3.00;99.90;;;;;;4927668;28;1084780;-63
2022/12/03 00:29:59;;;;;;;;;;;2.90;99.90;;;;;;4963966;28;19918;-63
2022/12/03 00:32:24;;;;;;;;;;;3.00;99.90;;;;;;4964492;28;20282;-63
2022/12/03 00:34:50;;;;;;;;;;;3.00;99.90;;;;;;4962200;28;19914;-63
2022/12/03 00:37:15;;;;;;;;;;;3.00;99.90;;;;;;4959345;28;19965;-63
2022/12/03 00:39:41;;;;;;;;;;;3.00;99.90;;;;;;4968485;28;19970;-63
2022/12/03 00:42:06;;;;;;;;;;;3.10;99.90;;;;;;4952935;28;19986;-63
2022/12/03 00:44:32;;;;;;;;;;;3.10;99.90;;;;;;4971238;28;19914;-63
2022/12/03 00:46:57;;;;;;;;;;;3.10;99.90;;;;;;4964426;28;20382;-64
2022/12/03 00:49:22;;;;;;;;;;;3.20;99.90;;;;;;4954439;28;20528;-64
2022/12/03 00:51:48;;;;;;;;;;;3.20;99.90;;;;;;4959110;28;19914;-63
2022/12/03 00:54:13;;;;;;;;;;;3.30;99.90;;;;;;4964026;28;19946;-63
2022/12/03 00:56:39;;;;;;;;;;;3.50;99.90;;;;;;4966056;28;19914;-63
2022/12/03 00:59:05;;;;;;;;;;;3.30;99.90;;;;;;4962528;28;19969;-64
2022/12/03 01:01:30;;;;;;;;;;;3.30;99.90;;;;;;4961115;28;20214;-63
2022/12/03 01:03:56;;;;;;;;;;;3.10;99.90;;;;;;4953037;28;19918;-63
2022/12/03 01:06:21;;;;;;;;;;;3.10;99.90;;;;;;4958529;28;20309;-63
2022/12/03 01:08:47;;;;;;;;;;;3.00;99.90;;;;;;4961286;28;19937;-63
2022/12/03 01:13:57;;;;;;;;;;;3.00;99.90;;;;;;4955214;28;20408;-63
2022/12/03 01:16:22;;;;;;;;;;;3.00;99.90;;;;;;4964153;28;19914;-63
2022/12/03 01:18:51;;;;;;;;;;;3.20;99.90;;;;;;4954887;28;19910;-63
2022/12/03 01:21:16;;;;;;;;;;;3.30;99.90;;;;;;4958125;28;19910;-63
2022/12/03 01:23:42;;;;;;;;;;;3.30;99.90;;;;;;4966483;28;19937;-63
2022/12/03 01:26:07;;;;;;;;;;;3.20;99.90;;;;;;4961712;28;20053;-63
2022/12/03 01:28:33;;;;;;;;;;;3.10;99.90;;;;;;4955241;28;20708;-63
2022/12/03 01:33:42;;;;;;;;;;;3.20;99.90;;;;;;4955361;28;19925;-63
2022/12/03 01:36:08;;;;;;;;;;;3.30;99.90;;;;;;4957845;28;19914;-63
2022/12/03 01:38:33;;;;;;;;;;;3.40;99.90;;;;;;4963832;28;19962;-63
2022/12/03 01:40:59;;;;;;;;;;;3.20;99.90;;;;;;4958638;28;19918;-63
2022/12/03 01:43:24;;;;;;;;;;;3.20;99.90;;;;;;4950696;28;19920;-63
2022/12/03 01:45:50;;;;;;;;;;;3.30;99.90;;;;;;4964169;28;19924;-63
2022/12/03 01:48:16;;;;;;;;;;;3.20;99.90;;;;;;4964756;28;20423;-63
2022/12/03 01:50:41;;;;;;;;;;;3.30;99.90;;;;;;4964621;28;19911;-63
2022/12/03 01:53:10;;;;;;;;;;;3.50;99.90;;;;;;4953901;28;20008;-64
2022/12/03 01:55:35;;;;;;;;;;;3.60;99.90;;;;;;4968055;28;20452;-64
2022/12/03 01:58:01;;;;;;;;;;;3.70;99.90;;;;;;4960693;28;19913;-64
2022/12/03 02:00:27;;;;;;;;;;;3.80;99.90;;;;;;4960262;28;20266;-63
2022/12/03 02:02:55;;;;;;;;;;;3.60;99.90;;;;;;4961567;28;20297;-63
2022/12/03 02:05:25;;;;;;;;;;;3.60;99.90;;;;;;4959700;28;19926;-63
2022/12/03 02:07:50;;;;;;;;;;;3.70;99.90;;;;;;4956774;28;19934;-63
2022/12/03 02:10:17;;;;;;;;;;;3.60;99.90;;;;;;4948588;28;19914;-63
2022/12/03 02:12:46;;;;;;;;;;;3.30;99.90;;;;;;4964336;28;20328;-63
2022/12/03 02:15:12;;;;;;;;;;;3.40;99.90;;;;;;4978741;28;20473;-63
2022/12/03 02:17:37;;;;;;;;;;;3.50;99.90;;;;;;4952418;28;20033;-63
2022/12/03 02:20:04;;;;;;;;;;;3.50;99.90;;;;;;4959443;28;20026;-63
2022/12/03 02:22:33;;;;;;;;;;;3.70;99.90;;;;;;4948732;28;19926;-63
2022/12/03 02:25:04;;;;;;;;;;;3.50;99.90;;;;;;4963797;28;19918;-64
2022/12/03 02:27:30;;;;;;;;;;;3.60;99.90;;;;;;4958862;28;20008;-63
2022/12/03 02:29:55;;;;;;;;;;;3.50;99.90;;;;;;4955500;28;20056;-63
2022/12/03 02:32:22;;;;;;;;;;;3.50;99.90;;;;;;4974507;28;19914;-63
2022/12/03 02:34:48;;;;;;;;;;;3.50;99.90;;;;;;4955408;28;19910;-63
2022/12/03 02:37:24;;;;;;;;;;;3.60;99.90;;;;;;4959025;28;19917;-63
2022/12/03 02:39:51;;;;;;;;;;;3.40;99.90;;;;;;4962271;28;20005;-63
2022/12/03 02:42:36;;;;;;;;;;;3.40;99.90;;;;;;4955411;28;19910;-63
2022/12/03 02:45:20;;;;;;;;;;;3.60;99.90;;;;;;4959322;28;19941;-63
2022/12/03 02:47:50;;;;;;;;;;;3.30;99.90;;;;;;4958643;28;19973;-63
2022/12/03 02:50:18;;;;;;;;;;;3.40;99.90;;;;;;4951502;28;20627;-63
2022/12/03 02:52:45;;;;;;;;;;;3.50;99.90;;;;;;4957295;28;20370;-63
2022/12/03 02:55:11;;;;;;;;;;;3.40;99.90;;;;;;4962478;28;19917;-64
2022/12/03 02:57:37;;;;;;;;;;;3.40;99.90;;;;;;4958921;28;20020;-63
2022/12/03 03:00:05;;;;;;;;;;;3.40;99.90;;;;;;4962242;28;20006;-63
2022/12/03 03:02:31;;;;;;;;;;;3.40;99.90;;;;;;4965703;28;19918;-63
2022/12/03 03:04:56;;;;;;;;;;;3.20;99.90;;;;;;4957239;28;20304;-64
2022/12/03 03:07:22;;;;;;;;;;;3.10;99.90;;;;;;4964249;28;19946;-63
2022/12/03 03:09:47;;;;;;;;;;;3.30;99.90;;;;;;4957149;28;20389;-63
2022/12/03 03:12:13;;;;;;;;;;;3.50;99.90;;;;;;4966169;28;19914;-63
2022/12/03 03:14:38;;;;;;;;;;;3.60;99.90;;;;;;4965271;28;19933;-63
2022/12/03 03:17:04;;;;;;;;;;;3.30;99.90;;;;;;4966576;28;19960;-63
2022/12/03 03:19:29;;;;;;;;;;;3.50;99.90;;;;;;4954938;28;19929;-64
2022/12/03 03:21:55;;;;;;;;;;;3.50;99.90;;;;;;4959229;28;19937;-64
2022/12/03 03:24:21;;;;;;;;;;;3.60;99.90;;;;;;4965008;28;19918;-63
2022/12/03 03:26:47;;;;;;;;;;;3.60;99.90;;;;;;4953332;28;19988;-64
2022/12/03 03:29:12;;;;;;;;;;;3.60;99.90;;;;;;4961090;28;19981;-63
2022/12/03 03:31:38;;;;;;;;;;;3.60;99.90;;;;;;4964323;28;19977;-63
2022/12/03 03:34:04;;;;;;;;;;;3.70;99.90;;;;;;4958995;28;19917;-63
2022/12/03 03:36:30;;;;;;;;;;;3.80;99.90;;;;;;4957865;28;19911;-63
2022/12/03 03:38:55;;;;;;;;;;;3.70;99.90;;;;;;4960354;28;19992;-63
2022/12/03 03:41:21;;;;;;;;;;;3.80;99.90;;;;;;4963292;28;19937;-62
2022/12/03 03:43:48;;;;;;;;;;;3.70;99.90;;;;;;4955940;28;19914;-63
2022/12/03 03:46:13;;;;;;;;;;;3.70;99.90;;;;;;4959153;28;19921;-62
2022/12/03 03:48:40;;;;;;;;;;;3.50;99.90;;;;;;4954515;28;19910;-63
2022/12/03 03:51:08;;;;;;;;;;;3.30;99.90;;;;;;4962580;28;19918;-63
2022/12/03 03:53:41;;;;;;;;;;;3.50;99.90;;;;;;4962149;28;19915;-63
2022/12/03 03:56:07;;;;;;;;;;;3.60;99.90;;;;;;4956350;28;19918;-63
2022/12/03 03:58:32;;;;;;;;;;;3.60;99.90;;;;;;4967883;28;20448;-63
2022/12/03 04:00:59;;;;;;;;;;;3.50;99.90;;;;;;4965921;28;20384;-63
2022/12/03 04:03:24;;;;;;;;;;;3.50;99.90;;;;;;4976277;28;19942;-63
2022/12/03 04:05:50;;;;;;;;;;;3.30;99.90;;;;;;4967608;28;20018;-63
2022/12/03 04:08:15;;;;;;;;;;;3.40;99.90;;;;;;4957918;28;19915;-63
2022/12/03 04:13:25;;;;;;;;;;;3.50;99.90;;;;;;4954655;28;19965;-63
2022/12/03 04:15:50;;;;;;;;;;;3.50;99.90;;;;;;4962461;28;20332;-63
2022/12/03 04:23:44;;;;;;;;;;;;;;;;;;4959063;28;19921;-63
2022/12/03 04:28:54;;;;;;;;;;;3.40;99.90;;;;;;4958350;28;20017;-63
2022/12/03 04:36:47;;;;;;;;;;;3.30;99.90;;;;;;4961733;28;19916;-63
2022/12/03 04:39:13;;;;;;;;;;;3.40;99.90;;;;;;4954166;28;19914;-62
2022/12/03 04:41:38;;;;;;;;;;;3.20;99.90;;;;;;4967952;28;19946;-62
2022/12/03 04:46:48;;;;;;;;;;;3.40;99.90;;;;;;4956621;28;19921;-63
2022/12/03 04:49:13;;;;;;;;;;;3.40;99.90;;;;;;4957899;28;19914;-63
2022/12/03 04:51:39;;;;;;;;;;;3.40;99.90;;;;;;4962615;28;20416;-63
2022/12/03 04:54:04;;;;;;;;;;;3.20;99.90;;;;;;4960334;28;19916;-63
2022/12/03 04:56:30;;;;;;;;;;;3.20;99.90;;;;;;4967695;28;19914;-63
2022/12/03 04:58:55;;;;;;;;;;;2.90;99.90;;;;;;4951355;28;19937;-63
2022/12/03 05:01:21;;;;;;;;;;;3.20;99.90;;;;;;4966229;28;19921;-63
2022/12/03 05:03:46;;;;;;;;;;;2.90;99.90;;;;;;4959647;28;19910;-62
2022/12/03 05:06:12;;;;;;;;;;;3.10;99.90;;;;;;4965776;28;19977;-62
2022/12/03 05:08:37;;;;;;;;;;;3.30;99.90;;;;;;4959065;28;19918;-63
2022/12/03 05:11:03;;;;;;;;;;;3.10;99.90;;;;;;4957087;28;19918;-62
2022/12/03 05:13:28;;;;;;;;;;;3.20;99.90;;;;;;4963453;28;19967;-62
2022/12/03 05:15:53;;;;;;;;;;;3.10;99.90;;;;;;4963912;28;19910;-62
2022/12/03 05:18:19;;;;;;;;;;;3.20;99.90;;;;;;4949758;28;19914;-62
2022/12/03 05:20:44;;;;;;;;;;;3.00;99.90;;;;;;4957835;28;19922;-63
2022/12/03 05:23:11;;;;;;;;;;;3.20;99.90;;;;;;4961282;28;20030;-62
2022/12/03 05:25:36;;;;;;;;;;;3.30;99.90;;;;;;4968719;28;20424;-62
2022/12/03 05:28:02;;;;;;;;;;;3.50;99.90;;;;;;4962326;28;19922;-62
2022/12/03 05:30:28;;;;;;;;;;;3.20;99.90;;;;;;4957311;28;19972;-63
2022/12/03 05:32:53;;;;;;;;;;;3.40;99.90;;;;;;4957861;28;19917;-62
2022/12/03 05:35:19;;;;;;;;;;;3.30;99.90;;;;;;4956560;28;19910;-63
2022/12/03 05:37:44;;;;;;;;;;;3.20;99.90;;;;;;4959622;28;19973;-62
2022/12/03 05:40:10;;;;;;;;;;;3.20;99.90;;;;;;4963111;28;19921;-62
2022/12/03 05:42:54;;;;;;;;;;;3.30;99.90;;;;;;4957957;28;19917;-63
2022/12/03 05:45:23;;;;;;;;;;;3.30;99.90;;;;;;4963672;28;20199;-63
2022/12/03 05:47:49;;;;;;;;;;;3.10;99.90;;;;;;4952775;28;20059;-63
2022/12/03 05:50:14;;;;;;;;;;;3.20;99.90;;;;;;4960052;28;20513;-62
2022/12/03 05:52:40;;;;;;;;;;;3.10;99.90;;;;;;4962538;28;19921;-62
2022/12/03 05:55:06;;;;;;;;;;;3.10;99.90;;;;;;4955796;28;19917;-63
2022/12/03 05:57:32;;;;;;;;;;;3.20;99.90;;;;;;4953082;28;20352;-62
2022/12/03 05:59:57;;;;;;;;;;;3.30;99.90;;;;;;4961464;28;19997;-62
2022/12/03 06:02:22;;;;;;;;;;;3.10;99.90;;;;;;4963793;28;20422;-63
2022/12/03 06:04:48;;;;;;;;;;;3.30;99.90;;;;;;4956087;28;19985;-63
2022/12/03 06:07:13;;;;;;;;;;;2.80;99.90;;;;;;4961616;28;19945;-62
2022/12/03 06:09:39;;;;;;;;;;;3.00;99.90;;;;;;4971960;28;19914;-62
2022/12/03 06:12:05;;;;;;;;;;;3.30;99.90;;;;;;4961530;28;19922;-62
2022/12/03 06:14:33;;;;;;;;;;;3.30;99.90;;;;;;4959885;28;19918;-63
2022/12/03 06:16:59;;;;;;;;;;;3.30;99.90;;;;;;4960809;28;19918;-62
2022/12/03 06:19:24;;;;;;;;;;;3.30;99.90;;;;;;4953897;28;19917;-62
2022/12/03 06:21:50;;;;;;;;;;;3.40;99.90;;;;;;4950997;28;19911;-62
2022/12/03 06:24:15;;;;;;;;;;;3.30;99.90;;;;;;4956778;28;19951;-62
2022/12/03 06:26:40;;;;;;;;;;;3.30;99.90;;;;;;4967066;28;19921;-62
2022/12/03 06:29:06;;;;;;;;;;;3.20;99.90;;;;;;4969277;28;20009;-62
2022/12/03 06:31:31;;;;;;;;;;;3.40;99.90;;;;;;4960175;28;19918;-63
2022/12/03 06:33:57;;;;;;;;;;;3.40;99.90;;;;;;4958784;28;20005;-62
2022/12/03 06:36:23;;;;;;;;;;;2.90;99.90;;;;;;4955585;28;19918;-62
2022/12/03 06:38:48;;;;;;;;;;;2.80;99.90;;;;;;4962039;28;19961;-63
2022/12/03 06:41:14;;;;;;;;;;;2.90;99.90;;;;;;4954558;28;19910;-63
2022/12/03 06:43:39;;;;;;;;;;;2.80;99.90;;;;;;4961370;28;19914;-62
2022/12/03 06:46:05;;;;;;;;;;;3.00;99.90;;;;;;4968403;28;20085;-63
2022/12/03 06:48:30;;;;;;;;;;;3.10;99.90;;;;;;4964050;28;19982;-63
2022/12/03 06:50:56;;;;;;;;;;;3.00;99.90;;;;;;4965263;28;19918;-63
2022/12/03 06:53:21;;;;;;;;;;;2.90;99.90;;;;;;4963366;28;19976;-63
2022/12/03 06:55:47;;;;;;;;;;;3.10;99.90;;;;;;4959619;28;19910;-63
2022/12/03 06:58:12;;;;;;;;;;;3.00;99.90;;;;;;4961817;28;20016;-64
2022/12/03 07:00:37;;;;;;;;;;;3.00;99.90;;;;;;4960403;28;19914;-63
2022/12/03 07:03:03;;;;;;;;;;;2.80;99.90;;;;;;4960306;28;19918;-63
2022/12/03 07:05:28;;;;;;;;;;;2.70;99.90;;;;;;4975449;28;20054;-63
2022/12/03 07:07:54;;;;;;;;;;;2.60;99.90;;;;;;4964884;28;19918;-63
2022/12/03 07:10:20;;;;;;;;;;;2.70;99.90;;;;;;4966161;28;19996;-63
2022/12/03 07:12:45;;;;;;;;;;;2.70;99.90;;;;;;4958745;28;20460;-63
2022/12/03 07:15:11;;;;;;;;;;;2.70;99.90;;;;;;4958957;28;20369;-63
2022/12/03 07:17:36;;;;;;;;;;;2.80;99.90;;;;;;4958675;28;19921;-63
2022/12/03 07:20:04;;;;;;;;;;;3.00;99.90;;;;;;4958796;28;19918;-63
2022/12/03 07:22:29;;;;;;;;;;;3.00;99.90;;;;;;4959058;28;19910;-63
2022/12/03 07:24:55;;;;;;;;;;;2.90;99.90;;;;;;4962830;28;19933;-63
2022/12/03 07:27:20;;;;;;;;;;;3.10;99.90;;;;;;4967561;28;19922;-63
2022/12/03 07:29:46;;;;;;;;;;;3.20;99.90;;;;;;4963063;28;20589;-63
2022/12/03 07:32:11;;;;;;;;;;;3.20;99.90;;;;;;4968507;28;19914;-63
2022/12/03 07:34:37;;;;;;;;;;;3.20;99.90;;;;;;4965367;28;19918;-63
2022/12/03 07:37:02;;;;;;;;;;;3.30;99.90;;;;;;4963051;28;20028;-63
2022/12/03 07:39:28;;;;;;;;;;;3.30;99.90;;;;;;4962317;28;20346;-63
2022/12/03 07:41:53;;;;;;;;;;;3.30;99.90;;;;;;4962874;28;19914;-63
2022/12/03 07:44:19;;;;;;;;;;;3.20;99.90;;;;;;4964804;28;20590;-63
2022/12/03 07:46:44;;;;;;;;;;;3.30;99.90;;;;;;4965807;28;20025;-63
2022/12/03 07:49:11;;;;;;;;;;;3.30;99.90;;;;;;4963315;28;20005;-63
2022/12/03 07:51:36;;;;;;;;;;;3.20;99.90;;;;;;4957366;28;19980;-63
2022/12/03 07:54:02;;;;;;;;;;;3.10;99.90;;;;;;4961666;28;19918;-63
2022/12/03 07:56:28;;;;;;;;;;;3.10;99.90;;;;;;4962028;28;19961;-63
2022/12/03 07:58:53;;;;;;;;;;;3.00;99.90;;;;;;4956832;28;19922;-63
2022/12/03 08:01:19;;;;;;;;;;;3.10;99.90;;;;;;4957881;28;20303;-63
2022/12/03 08:03:44;;;;;;;;;;;3.00;99.90;;;;;;4962723;28;19914;-63
2022/12/03 08:06:09;;;;;;;;;;;3.10;99.90;;;;;;4958967;28;20388;-63
2022/12/03 08:08:35;;;;;;;;;;;3.10;99.90;;;;;;4961906;28;19918;-63
2022/12/03 08:11:01;;;;;;;;;;;3.10;99.90;;;;;;4955014;28;20303;-63
2022/12/03 08:13:26;;;;;;;;;;;3.30;99.90;;;;;;4960252;28;19929;-63
2022/12/03 08:15:54;;;;;;;;;;;3.10;99.90;;;;;;4959679;28;19914;-63
2022/12/03 08:18:19;;;;;;;;;;;3.10;99.90;;;;;;4959065;28;19969;-63
2022/12/03 08:20:47;;;;;;;;;;;3.30;99.90;;;;;;4962088;28;19922;-63
2022/12/03 08:23:13;;;;;;;;;;;3.40;99.90;;;;;;4956670;28;19961;-64
2022/12/03 08:25:39;;;;;;;;;;;3.40;99.90;;;;;;4961680;28;19918;-58
2022/12/03 08:28:31;;;;;;;;;;;3.30;99.90;;;;;;4954976;28;20428;-63
2022/12/03 08:31:10;;;;;;;;;;;3.30;99.90;;;;;;4951374;28;19923;-64
2022/12/03 08:33:36;;;;;;;;;;;3.40;99.90;;;;;;4949817;28;19915;-63
2022/12/03 08:36:11;;;;;;;;;;;3.40;99.90;;;;;;4958176;28;20388;-63
2022/12/03 08:38:36;;;;;;;;;;;3.40;99.90;;;;;;4959073;28;19929;-64
2022/12/03 08:41:09;;;;;;;;;;;3.40;99.90;;;;;;4958187;28;19917;-64
2022/12/03 08:43:40;;;;;;;;;;;;;;;;;;4957862;28;20386;-64
2022/12/03 08:46:09;;;;;;;;;;;3.60;99.90;;;;;;4958640;28;20440;-64
2022/12/03 08:48:36;;;;;;;;;;;3.60;99.90;;;;;;4960210;28;19941;-65
2022/12/03 08:51:10;;;;;;;;;;;3.60;99.90;;;;;;4966833;28;19972;-65
2022/12/03 08:54:01;;;;;;;;;;;3.60;99.90;;;;;;4959539;28;20388;-65
2022/12/03 08:56:28;;;;;;;;;;;3.70;99.90;;;;;;4955500;28;19914;-65
2022/12/03 08:59:00;;;;;;;;;;;3.60;99.90;;;;;;4961100;28;19961;-65
2022/12/03 09:01:28;;;;;;;;;;;3.60;99.90;;;;;;4956406;28;20433;-65
2022/12/03 09:03:55;;;;;;;;;;;3.40;99.90;;;;;;4958423;28;19929;-65
2022/12/03 09:06:20;;;;;;;;;;;3.30;99.90;;;;;;4963548;28;20309;-65
2022/12/03 09:08:46;;;;;;;;;;;3.10;99.90;;;;;;4958808;28;19929;-65
2022/12/03 09:11:12;;;;;;;;;;;3.20;99.90;;;;;;4958076;28;19914;-65
2022/12/03 09:13:37;;;;;;;;;;;3.40;99.90;;;;;;4958133;28;19945;-65
2022/12/03 09:16:03;;;;;;;;;;;3.60;99.90;;;;;;4962568;28;19950;-65
2022/12/03 09:18:28;;;;;;;;;;;3.30;99.90;;;;;;4962015;28;20001;-65
2022/12/03 09:20:55;;;;;;;;;;;3.20;99.90;;;;;;4954758;28;19910;-65
2022/12/03 09:23:20;;;;;;;;;;;3.00;99.90;;;;;;4952957;28;20409;-66
2022/12/03 09:25:46;;;;;;;;;;;3.00;99.90;;;;;;4968025;28;19922;-65
2022/12/03 09:28:11;;;;;;;;;;;2.90;99.90;;;;;;4951355;28;20647;-65
2022/12/03 09:30:37;;;;;;;;;;;3.10;99.90;;;;;;4958601;28;19918;-65
2022/12/03 09:33:02;;;;;;;;;;;3.10;99.90;;;;;;4955793;28;19922;-65
2022/12/03 09:35:28;;;;;;;;;;;3.10;99.90;;;;;;4971526;28;20673;-65
2022/12/03 09:37:54;;;;;;;;;;;3.00;99.90;;;;;;4958997;28;19910;-65
2022/12/03 09:40:20;;;;;;;;;;;3.10;99.90;;;;;;4955924;28;20374;-65
2022/12/03 09:42:45;;;;;;;;;;;3.10;99.90;;;;;;4953257;28;19924;-65
2022/12/03 09:45:13;;;;;;;;;;;3.20;99.90;;;;;;4959230;28;19934;-65
2022/12/03 09:47:45;;;;;;;;;;;3.30;99.90;;;;;;4953688;28;19918;-65
2022/12/03 09:50:13;;;;;;;;;;;3.30;99.90;;;;;;4954157;28;20654;-65
2022/12/03 09:52:38;;;;;;;;;;;3.20;99.90;;;;;;4951231;28;19910;-65
2022/12/03 09:55:07;;;;;;;;;;;3.40;99.90;;;;;;4960947;28;19925;-66
2022/12/03 09:57:32;;;;;;;;;;;3.40;99.90;;;;;;4962549;28;19916;-66
2022/12/03 09:59:58;;;;;;;;;;;3.60;99.90;;;;;;4965690;28;20277;-66
2022/12/03 10:02:26;;;;;;;;;;;3.60;99.90;;;;;;4965000;28;19914;-65
2022/12/03 10:04:51;;;;;;;;;;;3.60;99.90;;;;;;4950818;28;19922;-65
2022/12/03 10:07:17;;;;;;;;;;;3.60;99.90;;;;;;4964428;28;19916;-65
2022/12/03 10:09:43;;;;;;;;;;;3.50;99.90;;;;;;4962981;28;20291;-65
2022/12/03 10:12:10;;;;;;;;;;;3.60;99.90;;;;;;4962952;28;19914;-65
2022/12/03 10:14:36;;;;;;;;;;;3.60;99.90;;;;;;4959747;28;20285;-65
2022/12/03 10:17:02;;;;;;;;;;;3.70;99.90;;;;;;4955468;28;19920;-65
2022/12/03 10:19:29;;;;;;;;;;;3.80;99.90;;;;;;4960244;28;19925;-65
2022/12/03 10:21:54;;;;;;;;;;;3.50;99.90;;;;;;4960319;28;20429;-65
2022/12/03 10:24:20;;;;;;;;;;;;;;;;;;4966136;28;19914;-64
2022/12/03 10:26:48;;;;;;;;;;;3.70;99.90;;;;;;4956514;28;19922;-64
2022/12/03 10:29:19;;;;;;;;;;;3.40;99.90;;;;;;4956134;28;19914;-65
2022/12/03 10:31:45;;;;;;;;;;;3.30;99.90;;;;;;4957361;28;20297;-63
2022/12/03 10:34:10;;;;;;;;;;;3.50;99.90;;;;;;4957279;28;20534;-63
2022/12/03 10:36:36;;;;;;;;;;;3.30;99.90;;;;;;4959872;28;19973;-63
2022/12/03 10:39:06;;;;;;;;;;;3.10;99.90;;;;;;4964475;28;19965;-63
2022/12/03 10:41:31;;;;;;;;;;;3.40;99.90;;;;;;4960480;28;20341;-64
2022/12/03 10:44:11;;;;;;;;;;;3.40;99.90;;;;;;4956852;28;19914;-64
2022/12/03 10:46:37;;;;;;;;;;;3.40;99.90;;;;;;4962629;28;19922;-64
2022/12/03 10:49:16;;;;;;;;;;;3.60;99.90;;;;;;4959795;28;20608;-63
2022/12/03 10:51:42;;;;;;;;;;;3.20;99.90;;;;;;4960311;28;19911;-65
2022/12/03 10:54:14;;;;;;;;;;;3.50;99.90;;;;;;4961874;28;20379;-64
2022/12/03 10:56:39;;;;;;;;;;;3.20;99.90;;;;;;4947952;28;19910;-65
2022/12/03 10:59:07;;;;;;;;;;;3.40;99.90;;;;;;4950464;28;20101;-64
2022/12/03 11:01:33;;;;;;;;;;;3.20;99.90;;;;;;4958427;28;19921;-64
2022/12/03 11:04:01;;;;;;;;;;;3.20;99.90;;;;;;4951793;28;19914;-65
2022/12/03 11:06:29;;;;;;;;;;;3.40;99.90;;;;;;4965115;28;19921;-65
2022/12/03 11:08:56;;;;;;;;;;;3.40;99.90;;;;;;4958514;28;19915;-64
2022/12/03 11:11:24;;;;;;;;;;;3.50;99.90;;;;;;4958573;28;19974;-65
2022/12/03 11:14:00;;;;;;;;;;;3.40;99.90;;;;;;4950654;28;20480;-65
2022/12/03 11:16:38;;;;;;;;;;;3.40;99.90;;;;;;4963719;28;20034;-64
2022/12/03 11:19:04;;;;;;;;;;;3.30;99.90;;;;;;4960999;28;19913;-65
2022/12/03 11:21:30;;;;;;;;;;;3.60;99.90;;;;;;4965806;28;20267;-65
2022/12/03 11:23:58;;;;;;;;;;;3.60;99.90;;;;;;4961919;28;19921;-64
2022/12/03 11:26:24;;;;;;;;;;;3.90;99.90;;;;;;4963468;28;19922;-64
2022/12/03 11:28:51;;;;;;;;;;;3.60;99.90;;;;;;4965110;28;19925;-64
2022/12/03 11:31:31;;;;;;;;;;;3.60;99.90;;;;;;4958429;28;19996;-63
2022/12/03 11:34:15;;;;;;;;;;;3.40;99.90;;;;;;4958043;28;19921;-64
2022/12/03 11:36:59;;;;;;;;;;;3.40;99.90;;;;;;4960810;28;19914;-64
2022/12/03 11:39:43;;;;;;;;;;;3.70;99.90;;;;;;4960321;28;19925;-64
2022/12/03 11:42:27;;;;;;;;;;;4.00;99.90;;;;;;4960118;28;20338;-64
2022/12/03 11:45:01;;;;;;;;;;;3.80;99.90;;;;;;4965276;28;20424;-64
2022/12/03 11:47:27;;;;;;;;;;;3.80;99.90;;;;;;4959638;28;19914;-63
2022/12/03 11:49:53;;;;;;;;;;;3.60;99.90;;;;;;4958671;28;20286;-63
2022/12/03 11:52:20;;;;;;;;;;;3.80;99.90;;;;;;4983543;28;19925;-64
2022/12/03 11:54:48;;;;;;;;;;;3.90;99.90;;;;;;4966614;28;20008;-64
2022/12/03 11:57:28;;;;;;;;;;;4.00;99.90;;;;;;4958722;28;20425;-64
2022/12/03 12:00:05;;;;;;;;;;;4.10;99.90;;;;;;4970913;28;19910;-64
2022/12/03 12:02:31;;;;;;;;;;;4.10;99.90;;;;;;4962213;28;19919;-66
2022/12/03 12:05:12;;;;;;;;;;;4.10;99.90;;;;;;4960641;28;20056;-64
2022/12/03 12:07:37;;;;;;;;;;;4.10;99.90;;;;;;4959369;28;19918;-64
2022/12/03 12:10:03;;;;;;;;;;;3.60;99.90;;;;;;4957926;28;19910;-63
2022/12/03 12:12:30;;;;;;;;;;;3.70;99.90;;;;;;4959554;28;19914;-64
2022/12/03 12:14:56;;;;;;;;;;;3.50;99.90;;;;;;4966535;28;19918;-64
2022/12/03 12:17:27;;;;;;;;;;;3.10;99.90;;;;;;4984209;28;20356;-64
2022/12/03 12:20:09;;;;;;;;;;;3.30;99.90;;;;;;4952878;28;20358;-64
2022/12/03 12:22:35;;;;;;;;;;;3.30;99.90;;;;;;4962507;28;20353;-65
2022/12/03 12:25:01;;;;;;;;;;;3.30;99.90;;;;;;4957613;28;19915;-65
2022/12/03 12:27:32;;;;;;;;;;;3.60;99.90;;;;;;4954456;28;20338;-65
2022/12/03 12:29:59;;;;;;;;;;;3.80;99.90;;;;;;4971072;28;20020;-65
2022/12/03 12:32:33;;;;;;;;;;;3.80;99.90;;;;;;4958526;28;19914;-65
2022/12/03 12:35:01;;;;;;;;;;;3.70;99.90;;;;;;4964509;28;20386;-65
2022/12/03 12:37:34;;;;;;;;;;;3.60;99.90;;;;;;4961406;28;20415;-65
2022/12/03 12:40:00;;;;;;;;;;;3.50;99.90;;;;;;4956862;28;19914;-64
2022/12/03 12:42:33;;;;;;;;;;;3.20;99.90;;;;;;4958355;28;20341;-65
2022/12/03 12:45:12;;;;;;;;;;;3.30;99.90;;;;;;4959870;28;19914;-65
2022/12/03 12:47:39;;;;;;;;;;;3.30;99.90;;;;;;4952426;28;19918;-65
2022/12/03 12:50:08;;;;;;;;;;;3.20;99.90;;;;;;4964413;28;20008;-67
2022/12/03 12:52:33;;;;;;;;;;;3.20;99.90;;;;;;4957436;28;19925;-65
2022/12/03 12:54:59;;;;;;;;;;;3.30;99.90;;;;;;4961956;28;20089;-65
2022/12/03 12:57:24;;;;;;;;;;;3.40;99.90;;;;;;4966288;28;19914;-62
2022/12/03 12:59:50;;;;;;;;;;;3.60;99.90;;;;;;4953024;28;19914;-63
2022/12/03 13:02:39;;;;;;;;;;;3.40;99.90;;;;;;4952540;28;20390;-63
2022/12/03 13:05:08;;;;;;;;;;;3.40;99.90;;;;;;4953215;28;20421;-63
2022/12/03 13:07:34;;;;;;;;;;;3.20;99.90;;;;;;4960190;28;20068;-63
2022/12/03 13:10:12;;;;;;;;;;;3.20;99.90;;;;;;4953177;28;19989;-63
2022/12/03 13:12:38;;;;;;;;;;;3.00;99.90;;;;;;4954986;28;19917;-63
2022/12/03 13:15:06;;;;;;;;;;;3.00;99.90;;;;;;4964023;28;20033;-63
2022/12/03 13:17:32;;;;;;;;;;;2.90;99.90;;;;;;4957119;28;20371;-63
2022/12/03 13:19:58;;;;;;;;;;;2.90;99.90;;;;;;4975514;28;19940;-63
2022/12/03 13:22:24;;;;;;;;;;;3.20;99.90;;;;;;4952298;28;19914;-63
2022/12/03 13:24:50;;;;;;;;;;;3.20;99.90;;;;;;4954097;28;19918;-63
2022/12/03 13:27:16;;;;;;;;;;;3.20;99.90;;;;;;4957575;28;19925;-63
2022/12/03 13:29:41;;;;;;;;;;;3.20;99.90;;;;;;4955191;28;19914;-64
2022/12/03 13:32:10;;;;;;;;;;;3.00;99.90;;;;;;4960562;28;19922;-63
2022/12/03 13:34:36;;;;;;;;;;;2.90;99.90;;;;;;4952556;28;19914;-63
2022/12/03 13:37:07;;;;;;;;;;;2.90;99.90;;;;;;4958200;28;19921;-64
2022/12/03 13:39:37;;;;;;;;;;;3.20;99.90;;;;;;4955644;28;20000;-63
2022/12/03 13:45:04;;;;;;;;;;;3.00;99.90;;;;;;4955237;28;19978;-63
2022/12/03 13:47:30;;;;;;;;;;;3.00;99.90;;;;;;4949692;28;19921;-64
2022/12/03 13:49:57;;;;;;;;;;;3.30;99.90;;;;;;4950285;28;19919;-63
2022/12/03 13:52:23;;;;;;;;;;;3.00;99.90;;;;;;4950999;28;20295;-63
2022/12/03 13:54:50;;;;;;;;;;;2.80;99.90;;;;;;4954720;28;19910;-63
2022/12/03 13:57:15;;;;;;;;;;;3.00;99.90;;;;;;4958021;28;20286;-64
2022/12/03 13:59:41;;;;;;;;;;;3.40;99.90;;;;;;4952143;28;19917;-63
2022/12/03 14:02:08;;;;;;;;;;;3.30;99.90;;;;;;4954812;28;20275;-63
2022/12/03 14:04:34;;;;;;;;;;;3.40;99.90;;;;;;4958884;28;19922;-64
2022/12/03 14:06:59;;;;;;;;;;;3.40;99.90;;;;;;4957210;28;19914;-64
2022/12/03 14:09:25;;;;;;;;;;;3.20;99.90;;;;;;4961798;28;19918;-63
2022/12/03 14:14:34;;;;;;;;;;;3.20;99.90;;;;;;4957759;28;20450;-64
2022/12/03 14:17:00;;;;;;;;;;;3.40;99.90;;;;;;4952530;28;20021;-64
2022/12/03 14:19:25;;;;;;;;;;;3.60;99.90;;;;;;4951746;28;20369;-64
2022/12/03 14:21:51;;;;;;;;;;;3.50;99.90;;;;;;4955483;28;19914;-64
2022/12/03 14:24:16;;;;;;;;;;;3.40;99.90;;;;;;4951550;28;19925;-64
2022/12/03 14:26:42;;;;;;;;;;;3.10;99.90;;;;;;4953926;28;20566;-64
2022/12/03 14:29:07;;;;;;;;;;;3.20;99.90;;;;;;4953375;28;19922;-64
2022/12/03 14:31:33;;;;;;;;;;;3.20;99.90;;;;;;4954986;28;19921;-63
2022/12/03 14:33:58;;;;;;;;;;;3.10;99.90;;;;;;4961529;28;19961;-64
2022/12/03 14:36:24;;;;;;;;;;;2.90;99.90;;;;;;4955642;28;19910;-64
2022/12/03 14:38:49;;;;;;;;;;;2.90;99.90;;;;;;4969558;28;20021;-64
2022/12/03 14:43:59;;;;;;;;;;;3.30;99.90;;;;;;4959684;28;19916;-64
2022/12/03 14:46:24;;;;;;;;;;;3.30;99.90;;;;;;4960706;28;19925;-64
2022/12/03 14:48:50;;;;;;;;;;;3.40;99.90;;;;;;4965426;28;19941;-64
2022/12/03 14:51:15;;;;;;;;;;;3.40;99.90;;;;;;4965256;28;19918;-64
2022/12/03 14:53:40;;;;;;;;;;;3.20;99.90;;;;;;4965690;28;20363;-64
2022/12/03 14:56:06;;;;;;;;;;;3.20;99.90;;;;;;4964989;28;19976;-64
2022/12/03 14:58:33;;;;;;;;;;;3.40;99.90;;;;;;4962334;28;19921;-64
2022/12/03 15:00:58;;;;;;;;;;;3.40;99.90;;;;;;4965982;28;19914;-64
2022/12/03 15:03:24;;;;;;;;;;;3.40;99.90;;;;;;4962676;28;19976;-64